Time;durP1;ratioP1;P1;durP2;ratioP2;P2;SDS_P1;SDS_P2;PMS_P1;PMS_P2;Temp;Humidity;BMP_temperature;BMP_pressure;BME280_temperature;BME280_humidity;BME280_pressure;Samples;Min_cycle;Max_cycle;Signal;HPM_P1;HPM_P2
2022/06/16 00:01:56;;;;;;;15.52;7.85;;;22.20;52.90;;;;;;5024426;28;20469;-73
2022/06/16 00:04:23;;;;;;;14.48;6.40;;;22.20;52.90;;;;;;5017353;28;20129;-73
2022/06/16 00:06:49;;;;;;;13.45;7.47;;;22.20;52.80;;;;;;5013850;28;20022;-73
2022/06/16 00:09:15;;;;;;;15.55;7.03;;;22.20;52.80;;;;;;5012474;28;20053;-73
2022/06/16 00:11:41;;;;;;;10.75;6.22;;;22.20;52.90;;;;;;4996104;28;20478;-73
2022/06/16 00:14:07;;;;;;;13.02;6.35;;;22.20;52.80;;;;;;5023275;28;20034;-72
2022/06/16 00:16:33;;;;;;;12.00;6.80;;;22.20;52.70;;;;;;5015233;28;20505;-73
2022/06/16 00:18:59;;;;;;;12.18;7.15;;;22.20;52.80;;;;;;5018523;28;20040;-73
2022/06/16 00:21:25;;;;;;;12.75;6.55;;;22.20;52.80;;;;;;5007576;28;20030;-72
2022/06/16 00:23:51;;;;;;;12.20;6.13;;;22.20;52.90;;;;;;5010234;28;20573;-73
2022/06/16 00:26:20;;;;;;;13.90;6.40;;;22.20;52.90;;;;;;5008299;28;20068;-73
2022/06/16 00:28:47;;;;;;;12.52;6.13;;;22.20;52.80;;;;;;5006754;28;20025;-73
2022/06/16 00:31:16;;;;;;;10.65;5.47;;;22.20;52.90;;;;;;5020685;28;20025;-73
2022/06/16 00:33:42;;;;;;;11.38;5.60;;;22.20;52.90;;;;;;5024820;28;20036;-73
2022/06/16 00:36:09;;;;;;;14.60;5.88;;;22.20;52.90;;;;;;5014094;28;20022;-73
2022/06/16 00:38:36;;;;;;;10.75;5.57;;;22.20;52.80;;;;;;5013099;28;20065;-73
2022/06/16 00:41:02;;;;;;;10.07;4.75;;;22.10;52.80;;;;;;5015700;28;21172;-73
2022/06/16 00:43:28;;;;;;;13.23;5.07;;;22.20;52.70;;;;;;5004364;28;20371;-73
2022/06/16 00:46:29;;;;;;;11.10;5.65;;;22.20;52.90;;;;;;4991300;28;20150;-73
2022/06/16 00:49:00;;;;;;;8.70;4.82;;;22.20;52.80;;;;;;5028525;28;20073;-73
2022/06/16 00:51:46;;;;;;;9.25;4.65;;;22.20;52.90;;;;;;5020837;28;20478;-73
2022/06/16 00:54:22;;;;;;;11.98;5.05;;;22.10;52.70;;;;;;5012773;28;20033;-73
2022/06/16 00:56:53;;;;;;;9.88;4.50;;;22.20;52.80;;;;;;5012309;28;20040;-72
2022/06/16 00:59:23;;;;;;;9.13;4.47;;;22.20;52.80;;;;;;5015166;28;20079;-73
2022/06/16 01:01:50;;;;;;;10.57;5.10;;;22.20;52.70;;;;;;5024671;28;20037;-73
2022/06/16 01:07:08;;;;;;;8.63;4.40;;;22.20;52.70;;;;;;5020793;28;20033;-73
2022/06/16 01:09:36;;;;;;;10.32;4.30;;;22.20;52.80;;;;;;5010218;28;20423;-73
2022/06/16 01:15:14;;;;;;;7.28;3.80;;;22.20;52.70;;;;;;5016819;28;20033;-73
2022/06/16 01:17:59;;;;;;;8.15;4.05;;;22.20;52.60;;;;;;5015169;28;20534;-74
2022/06/16 01:20:44;;;;;;;8.80;3.65;;;22.20;52.70;;;;;;5013952;28;20018;-73
2022/06/16 01:23:36;;;;;;;9.02;3.83;;;22.20;52.70;;;;;;5022372;28;20108;-74
2022/06/16 01:26:21;;;;;;;7.70;3.88;;;22.20;52.60;;;;;;5009133;28;20091;-73
2022/06/16 01:29:17;;;;;;;8.07;3.50;;;22.20;52.70;;;;;;5001954;28;20048;-73
2022/06/16 01:32:07;;;;;;;6.63;3.50;;;22.20;52.70;;;;;;5014323;28;20449;-73
2022/06/16 01:34:56;;;;;;;7.97;3.97;;;22.20;52.60;;;;;;5013229;28;20080;-73
2022/06/16 01:37:45;;;;;;;9.20;4.13;;;22.20;52.50;;;;;;5007034;28;20048;-73
2022/06/16 01:40:17;;;;;;;9.15;3.75;;;22.20;52.70;;;;;;4988188;28;20510;-73
2022/06/16 01:42:55;;;;;;;7.63;3.60;;;22.20;52.70;;;;;;5011279;28;20105;-73
2022/06/16 01:45:27;;;;;;;6.65;3.35;;;22.20;52.70;;;;;;5010961;28;20025;-73
2022/06/16 01:47:55;;;;;;;7.00;3.15;;;22.20;52.70;;;;;;5019160;28;20030;-72
2022/06/16 01:50:33;;;;;;;6.78;3.15;;;22.20;52.80;;;;;;5014802;28;20055;-72
2022/06/16 01:53:17;;;;;;;9.05;3.45;;;22.10;52.70;;;;;;5000618;28;20056;-73
2022/06/16 01:55:53;;;;;;;6.20;2.90;;;22.10;52.80;;;;;;5018491;28;20116;-73
2022/06/16 01:58:28;;;;;;;5.72;2.80;;;22.10;52.80;;;;;;5002994;28;20037;-72
2022/06/16 02:00:59;;;;;;;5.95;2.80;;;22.10;52.70;;;;;;4991523;28;20121;-73
2022/06/16 02:03:52;;;;;;;7.13;3.30;;;22.20;52.80;;;;;;4993322;28;20125;-72
2022/06/16 02:06:32;;;;;;;5.60;3.00;;;22.10;52.60;;;;;;5009041;28;20040;-73
2022/06/16 02:09:08;;;;;;;7.05;2.72;;;22.10;52.70;;;;;;5017174;28;20172;-73
2022/06/16 02:11:35;;;;;;;5.22;3.08;;;22.10;52.70;;;;;;5019109;28;20724;-73
2022/06/16 02:14:33;;;;;;;8.40;3.00;;;22.10;52.60;;;;;;4993526;28;20041;-73
2022/06/16 02:17:09;;;;;;;7.55;3.53;;;22.20;52.70;;;;;;4984392;28;20649;-73
2022/06/16 02:19:37;;;;;;;7.43;2.90;;;22.10;52.60;;;;;;5019116;28;20034;-73
2022/06/16 02:22:04;;;;;;;4.60;2.60;;;22.20;52.70;;;;;;5004264;28;20052;-73
2022/06/16 02:24:30;;;;;;;8.00;2.80;;;22.10;52.70;;;;;;5014037;28;20074;-73
2022/06/16 02:27:00;;;;;;;6.35;2.65;;;22.10;52.70;;;;;;5009959;28;20052;-73
2022/06/16 02:29:34;;;;;;;5.97;2.58;;;22.10;52.80;;;;;;5014899;28;20056;-73
2022/06/16 02:32:24;;;;;;;6.60;2.78;;;22.20;52.90;;;;;;5011318;28;20038;-73
2022/06/16 02:34:56;;;;;;;5.60;2.50;;;22.10;52.80;;;;;;5014945;28;20030;-73
2022/06/16 02:37:43;;;;;;;4.65;2.33;;;22.10;52.80;;;;;;5009684;28;20029;-73
2022/06/16 02:40:11;;;;;;;7.90;2.67;;;22.10;52.80;;;;;;5013145;28;20051;-73
2022/06/16 02:42:52;;;;;;;6.35;2.53;;;22.10;52.80;;;;;;5021651;28;20036;-73
2022/06/16 02:45:33;;;;;;;7.15;2.38;;;22.10;52.80;;;;;;4982920;28;20026;-73
2022/06/16 02:48:06;;;;;;;6.93;2.88;;;22.10;52.90;;;;;;5010539;28;20577;-73
2022/06/16 02:50:43;;;;;;;5.20;2.58;;;22.10;52.90;;;;;;5021904;28;20121;-73
2022/06/16 02:53:41;;;;;;;6.22;2.17;;;22.10;52.90;;;;;;5012681;28;20678;-73
2022/06/16 02:56:18;;;;;;;4.03;2.13;;;22.10;53.00;;;;;;5019279;28;20030;-73
2022/06/16 02:58:46;;;;;;;8.50;2.50;;;22.10;53.50;;;;;;5008155;28;20091;-73
2022/06/16 03:01:13;;;;;;;10.45;2.63;;;22.10;52.90;;;;;;4995512;28;20029;-73
2022/06/16 03:03:39;;;;;;;5.40;2.65;;;22.10;52.90;;;;;;5009612;28;20034;-72
2022/06/16 03:06:10;;;;;;;6.78;2.20;;;22.10;52.90;;;;;;5012656;28;20053;-73
2022/06/16 03:08:43;;;;;;;4.03;2.10;;;22.10;52.90;;;;;;5010690;28;20402;-73
2022/06/16 03:11:11;;;;;;;6.65;2.72;;;22.10;52.90;;;;;;5002962;28;20064;-72
2022/06/16 03:13:37;;;;;;;5.38;2.63;;;22.10;52.90;;;;;;5022714;28;20037;-73
2022/06/16 03:16:04;;;;;;;6.30;2.08;;;22.10;52.90;;;;;;5006575;28;20025;-73
2022/06/16 03:18:32;;;;;;;7.75;2.78;;;22.10;52.90;;;;;;5011460;28;20088;-73
2022/06/16 03:20:58;;;;;;;6.03;2.22;;;22.10;53.00;;;;;;5007235;28;20076;-72
2022/06/16 03:23:24;;;;;;;5.15;2.35;;;22.10;53.00;;;;;;5033657;28;20068;-72
2022/06/16 03:25:51;;;;;;;4.53;1.95;;;22.10;53.00;;;;;;5013584;28;20500;-72
2022/06/16 03:28:18;;;;;;;4.53;2.40;;;22.10;53.10;;;;;;5025029;28;20026;-72
2022/06/16 03:30:44;;;;;;;5.43;2.38;;;22.10;53.00;;;;;;4999485;28;20607;-72
2022/06/16 03:33:14;;;;;;;6.43;2.20;;;22.10;53.10;;;;;;5018946;28;20025;-72
2022/06/16 03:35:42;;;;;;;5.13;2.33;;;22.10;53.10;;;;;;5013182;28;20649;-72
2022/06/16 03:41:02;;;;;;;3.70;1.80;;;22.10;53.10;;;;;;5012904;28;20054;-72
2022/06/16 03:43:28;;;;;;;4.10;2.35;;;22.10;53.10;;;;;;4989089;28;20120;-72
2022/06/16 03:46:08;;;;;;;5.75;2.33;;;22.10;53.30;;;;;;5009002;28;20079;-72
2022/06/16 03:48:34;;;;;;;5.00;2.33;;;22.10;53.10;;;;;;5014857;28;20087;-72
2022/06/16 03:51:02;;;;;;;4.88;2.35;;;22.10;53.20;;;;;;4994809;28;20025;-72
2022/06/16 03:53:28;;;;;;;4.95;2.33;;;22.10;53.30;;;;;;5004624;28;20048;-72
2022/06/16 03:55:58;;;;;;;2.65;1.63;;;22.10;53.20;;;;;;5024218;28;20053;-72
2022/06/16 03:58:26;;;;;;;6.15;2.38;;;22.10;53.80;;;;;;5014846;28;20026;-72
2022/06/16 04:00:52;;;;;;;5.47;2.35;;;22.10;53.20;;;;;;4997010;28;20192;-72
2022/06/16 04:06:08;;;;;;;4.25;2.15;;;22.10;53.20;;;;;;5010764;28;20026;-72
2022/06/16 04:08:38;;;;;;;8.23;2.53;;;22.10;53.20;;;;;;4994696;28;20041;-72
2022/06/16 04:11:26;;;;;;;3.28;1.67;;;22.10;53.30;;;;;;5006525;28;20026;-72
2022/06/16 04:13:52;;;;;;;3.95;2.17;;;22.10;53.20;;;;;;5027010;28;20030;-72
2022/06/16 04:16:18;;;;;;;4.50;2.00;;;22.10;53.20;;;;;;4995879;28;20033;-73
2022/06/16 04:18:44;;;;;;;5.25;2.28;;;22.10;53.20;;;;;;5012080;28;20038;-72
2022/06/16 04:21:13;;;;;;;4.07;2.15;;;22.10;53.30;;;;;;4997104;28;20033;-72
2022/06/16 04:23:57;;;;;;;4.10;1.90;;;22.10;53.30;;;;;;5027589;28;20110;-72
2022/06/16 04:26:24;;;;;;;9.73;2.35;;;22.10;53.40;;;;;;5014069;28;20044;-73
2022/06/16 04:28:50;;;;;;;3.40;2.00;;;22.10;53.30;;;;;;5009902;28;20029;-72
2022/06/16 04:31:19;;;;;;;5.70;2.30;;;22.10;53.30;;;;;;5038322;28;20104;-72
2022/06/16 04:33:46;;;;;;;7.32;2.33;;;22.10;53.30;;;;;;5008070;28;20464;-73
2022/06/16 04:36:14;;;;;;;6.28;2.53;;;22.10;53.40;;;;;;5016205;28;20044;-73
2022/06/16 04:38:49;;;;;;;4.35;2.20;;;22.10;53.40;;;;;;5031534;28;20059;-73
2022/06/16 04:41:19;;;;;;;5.35;2.33;;;22.10;53.50;;;;;;5017793;28;20065;-72
2022/06/16 04:43:46;;;;;;;4.50;2.40;;;22.10;53.40;;;;;;4995879;28;20041;-72
2022/06/16 04:46:15;;;;;;;9.50;2.67;;;22.10;53.40;;;;;;5012653;28;20026;-72
2022/06/16 04:48:43;;;;;;;5.30;2.40;;;22.10;53.50;;;;;;4995592;28;20446;-73
2022/06/16 04:51:12;;;;;;;5.10;2.28;;;22.10;53.50;;;;;;4995997;28;20490;-72
2022/06/16 04:53:44;;;;;;;6.03;2.25;;;22.10;53.50;;;;;;5012651;28;20038;-72
2022/06/16 04:56:25;;;;;;;3.85;2.28;;;22.00;53.50;;;;;;4997706;28;20034;-72
2022/06/16 04:58:57;;;;;;;7.53;2.83;;;22.10;53.50;;;;;;5011440;28;20038;-72
2022/06/16 05:01:54;;;;;;;4.95;2.45;;;22.10;53.60;;;;;;4999782;28;20067;-73
2022/06/16 05:04:52;;;;;;;5.30;2.22;;;22.10;53.60;;;;;;5000168;28;20037;-73
2022/06/16 05:07:47;;;;;;;4.95;2.17;;;22.10;53.60;;;;;;5011161;28;20037;-73
2022/06/16 05:10:26;;;;;;;4.47;2.20;;;22.10;53.60;;;;;;5013885;28;20077;-72
2022/06/16 05:13:02;;;;;;;3.85;2.28;;;22.10;53.50;;;;;;4978415;28;20480;-72
2022/06/16 05:15:38;;;;;;;4.57;2.50;;;22.10;53.50;;;;;;4996932;28;20025;-73
2022/06/16 05:18:22;;;;;;;5.45;2.25;;;22.10;53.50;;;;;;5012356;28;20033;-73
2022/06/16 05:21:15;;;;;;;5.53;2.38;;;22.10;53.50;;;;;;5003918;28;20041;-73
2022/06/16 05:24:01;;;;;;;6.03;2.33;;;22.10;53.50;;;;;;5012928;28;20139;-73
2022/06/16 05:26:38;;;;;;;5.70;2.28;;;22.10;53.50;;;;;;4995347;28;20395;-73
2022/06/16 05:29:19;;;;;;;4.57;2.20;;;22.10;53.50;;;;;;5010340;28;20386;-73
2022/06/16 05:32:10;;;;;;;4.72;2.40;;;22.10;53.60;;;;;;5011604;28;20034;-72
2022/06/16 05:35:01;;;;;;;5.75;2.40;;;22.10;53.60;;;;;;4998480;28;20026;-72
2022/06/16 05:37:47;;;;;;;7.00;2.53;;;22.10;53.60;;;;;;4994562;28;20029;-73
2022/06/16 05:41:01;;;;;;;11.15;3.80;;;22.10;53.60;;;;;;5011853;28;20116;-72
2022/06/16 05:43:45;;;;;;;6.00;2.63;;;22.10;53.60;;;;;;5000719;28;20666;-73
2022/06/16 05:46:27;;;;;;;9.70;3.80;;;22.10;53.60;;;;;;5011420;28;20030;-73
2022/06/16 05:48:58;;;;;;;5.32;2.60;;;22.10;53.70;;;;;;5010330;28;20018;-73
2022/06/16 05:51:24;;;;;;;9.80;2.45;;;22.10;53.70;;;;;;5011032;28;20064;-73
2022/06/16 05:54:04;;;;;;;5.57;2.45;;;22.10;53.70;;;;;;5018751;28;20031;-73
2022/06/16 05:56:33;;;;;;;7.55;2.80;;;22.10;53.60;;;;;;5006094;28;20056;-73
2022/06/16 05:59:00;;;;;;;5.07;2.45;;;22.10;53.70;;;;;;4980622;28;20037;-73
2022/06/16 06:01:27;;;;;;;6.05;2.80;;;22.10;53.70;;;;;;5013398;28;20037;-73
2022/06/16 06:04:03;;;;;;;4.30;2.35;;;22.10;53.70;;;;;;5017169;28;20033;-74
2022/06/16 06:06:30;;;;;;;5.78;2.60;;;22.10;53.70;;;;;;4993778;28;20034;-73
2022/06/16 06:17:19;;;;;;;5.10;2.28;;;22.10;53.80;;;;;;5001453;28;20133;-73
2022/06/16 06:19:48;;;;;;;4.30;2.28;;;22.20;53.90;;;;;;4995507;28;20037;-73
2022/06/16 06:22:19;;;;;;;4.95;2.53;;;22.20;54.00;;;;;;5005498;28;20047;-73
2022/06/16 06:24:50;;;;;;;6.63;2.33;;;22.20;53.90;;;;;;5016035;28;20434;-73
2022/06/16 06:27:23;;;;;;;6.82;2.60;;;22.20;53.80;;;;;;4965777;28;20239;-73
2022/06/16 06:29:50;;;;;;;5.13;2.60;;;22.20;54.00;;;;;;4998989;28;20022;-73
2022/06/16 06:32:21;;;;;;;4.45;2.40;;;22.20;54.10;;;;;;5027379;28;20026;-73
2022/06/16 06:34:47;;;;;;;5.10;2.55;;;22.20;54.00;;;;;;5010638;28;20029;-73
2022/06/16 06:37:16;;;;;;;7.00;2.67;;;22.20;54.10;;;;;;5009859;28;20030;-72
2022/06/16 06:39:42;;;;;;;7.60;3.03;;;22.20;54.30;;;;;;5009832;28;20018;-72
2022/06/16 06:42:08;;;;;;;7.25;2.60;;;22.20;54.10;;;;;;5020849;28;20102;-73
2022/06/16 06:44:35;;;;;;;8.23;2.70;;;22.20;54.30;;;;;;5015434;28;20046;-73
2022/06/16 06:47:01;;;;;;;9.45;3.15;;;22.20;54.30;;;;;;4994799;28;20644;-76
2022/06/16 06:49:27;;;;;;;9.73;3.20;;;22.20;54.80;;;;;;5016219;28;20037;-73
2022/06/16 06:51:53;;;;;;;10.50;3.70;;;22.20;54.20;;;;;;5019291;28;20066;-72
2022/06/16 06:54:20;;;;;;;10.90;3.55;;;22.20;54.80;;;;;;5026278;28;20441;-73
2022/06/16 06:56:48;;;;;;;15.18;3.85;;;22.20;54.80;;;;;;5018509;28;20042;-72
2022/06/16 06:59:18;;;;;;;12.02;3.72;;;22.20;55.60;;;;;;5020043;28;20403;-73
2022/06/16 07:01:48;;;;;;;17.83;4.20;;;22.30;55.70;;;;;;5006950;23;20447;-75
2022/06/16 07:04:14;;;;;;;30.05;6.68;;;22.30;58.80;;;;;;4970926;28;20427;-75
2022/06/16 07:06:41;;;;;;;24.75;5.20;;;22.40;67.00;;;;;;4991578;28;20036;-76
2022/06/16 07:09:09;;;;;;;10.98;4.30;;;22.40;60.20;;;;;;4987938;28;20069;-74
2022/06/16 07:11:35;;;;;;;23.02;5.72;;;22.40;58.70;;;;;;4990394;28;20026;-75
2022/06/16 07:14:00;;;;;;;21.60;5.40;;;22.40;59.40;;;;;;4989541;28;20042;-75
2022/06/16 07:16:26;;;;;;;15.68;4.55;;;22.30;57.40;;;;;;4989194;28;20026;-75
2022/06/16 07:18:52;;;;;;;19.85;6.97;;;22.40;57.00;;;;;;4986494;28;20037;-75
2022/06/16 07:21:18;;;;;;;27.20;10.60;;;22.40;62.10;;;;;;4989397;28;20062;-73
2022/06/16 07:23:44;;;;;;;20.55;9.65;;;22.30;59.70;;;;;;4989886;28;20030;-75
2022/06/16 07:26:10;;;;;;;19.88;9.57;;;22.40;60.50;;;;;;4989735;28;20026;-75
2022/06/16 07:28:36;;;;;;;21.52;9.88;;;22.40;58.10;;;;;;4987792;28;20027;-75
2022/06/16 07:31:03;;;;;;;20.67;8.30;;;22.40;57.90;;;;;;4990403;28;20034;-76
2022/06/16 07:33:28;;;;;;;22.88;8.55;;;22.40;57.90;;;;;;4991537;28;20038;-75
2022/06/16 07:35:55;;;;;;;23.25;7.47;;;22.40;59.00;;;;;;4990754;28;20293;-75
2022/06/16 07:38:24;;;;;;;20.17;7.60;;;22.40;57.80;;;;;;4990118;28;20104;-74
2022/06/16 07:40:52;;;;;;;18.25;7.50;;;22.50;58.00;;;;;;4990438;28;20030;-75
2022/06/16 07:43:18;;;;;;;15.85;7.15;;;22.50;58.70;;;;;;5005060;28;20097;-75
2022/06/16 07:45:45;;;;;;;23.23;7.20;;;22.40;58.80;;;;;;4990119;28;20022;-76
2022/06/16 07:48:11;;;;;;;16.33;6.68;;;22.40;59.00;;;;;;5004262;28;20089;-75
2022/06/16 07:50:37;;;;;;;17.55;6.55;;;22.40;58.20;;;;;;4989474;28;20023;-76
2022/06/16 07:53:07;;;;;;;25.05;6.85;;;22.40;58.00;;;;;;4989428;28;20577;-76
2022/06/16 07:55:33;;;;;;;22.17;7.30;;;22.40;58.40;;;;;;4990220;28;20479;-77
2022/06/16 07:57:59;;;;;;;17.70;7.53;;;22.40;58.00;;;;;;4990440;28;20042;-77
2022/06/16 08:00:28;;;;;;;21.08;6.72;;;22.40;58.40;;;;;;4985759;28;20480;-77
2022/06/16 08:02:55;;;;;;;15.38;6.18;;;22.40;59.00;;;;;;4987139;28;20089;-77
2022/06/16 08:05:22;;;;;;;21.17;7.00;;;22.30;58.60;;;;;;4993612;28;20026;-77
2022/06/16 08:07:48;;;;;;;19.88;6.65;;;22.40;58.70;;;;;;4994201;28;20684;-77
2022/06/16 08:10:19;;;;;;;17.45;6.53;;;22.40;58.50;;;;;;4995073;28;20026;-77
2022/06/16 08:12:45;;;;;;;16.08;6.35;;;22.40;58.90;;;;;;4993644;28;20049;-77
2022/06/16 08:15:11;;;;;;;11.60;6.32;;;22.40;58.30;;;;;;4994163;28;20592;-76
2022/06/16 08:17:40;;;;;;;13.80;6.70;;;22.40;58.30;;;;;;4993040;28;20491;-77
2022/06/16 08:20:07;;;;;;;11.38;5.30;;;22.40;57.60;;;;;;5009915;28;20030;-77
2022/06/16 08:22:34;;;;;;;15.52;5.88;;;22.40;57.10;;;;;;4994577;28;20026;-77
2022/06/16 08:24:59;;;;;;;13.82;5.57;;;22.40;57.50;;;;;;4985796;28;20037;-77
2022/06/16 08:27:35;;;;;;;14.07;5.35;;;22.40;58.00;;;;;;4993733;28;20031;-77
2022/06/16 08:30:03;;;;;;;15.50;6.13;;;22.40;58.20;;;;;;4993456;28;20027;-76
2022/06/16 08:32:29;;;;;;;12.75;5.65;;;22.40;57.70;;;;;;4994504;28;20034;-76
2022/06/16 08:34:55;;;;;;;14.95;5.53;;;22.40;57.60;;;;;;4977082;28;20065;-77
2022/06/16 08:37:21;;;;;;;12.77;5.32;;;22.40;57.60;;;;;;4992930;28;20033;-77
2022/06/16 08:39:47;;;;;;;13.52;5.50;;;22.40;57.70;;;;;;4986052;28;20383;-76
2022/06/16 08:42:27;;;;;;;15.18;6.03;;;22.40;57.50;;;;;;4994026;28;20106;-76
2022/06/16 08:45:20;;;;;;;10.13;4.80;;;22.40;57.70;;;;;;4993154;28;20030;-76
2022/06/16 08:48:09;;;;;;;11.65;5.40;;;22.40;57.30;;;;;;4993572;28;20476;-76
2022/06/16 08:51:14;;;;;;;12.48;6.13;;;22.40;57.70;;;;;;5009703;28;20038;-77
2022/06/16 08:54:17;;;;;;;13.07;5.53;;;22.40;57.30;;;;;;4982760;28;20057;-76
2022/06/16 08:56:52;;;;;;;11.30;5.15;;;22.40;57.40;;;;;;4980556;28;20498;-76
2022/06/16 08:59:39;;;;;;;10.10;5.32;;;22.40;58.00;;;;;;4985457;28;20454;-76
2022/06/16 09:02:10;;;;;;;9.98;5.55;;;22.40;57.40;;;;;;4993699;28;20089;-76
2022/06/16 09:04:40;;;;;;;13.18;5.25;;;22.40;57.30;;;;;;4994184;28;20102;-76
2022/06/16 09:07:32;;;;;;;14.50;4.95;;;22.50;57.30;;;;;;4993671;28;20109;-76
2022/06/16 09:10:16;;;;;;;10.63;5.03;;;22.50;57.30;;;;;;4992189;28;20062;-76
2022/06/16 09:13:04;;;;;;;10.00;5.10;;;22.50;57.30;;;;;;4989146;28;20165;-76
2022/06/16 09:15:52;;;;;;;11.90;5.10;;;22.40;57.20;;;;;;4993538;28;20558;-76
2022/06/16 09:19:01;;;;;;;15.85;5.28;;;22.40;57.20;;;;;;4992880;28;20030;-76
2022/06/16 09:21:32;;;;;;;12.40;5.10;;;22.50;57.20;;;;;;5003067;28;20038;-76
2022/06/16 09:24:12;;;;;;;9.93;4.93;;;22.50;57.20;;;;;;4993435;28;20058;-76
2022/06/16 09:27:02;;;;;;;10.38;5.03;;;22.50;57.20;;;;;;4991844;28;20365;-76
2022/06/16 09:29:45;;;;;;;11.85;4.75;;;22.50;57.20;;;;;;4986384;28;20038;-75
2022/06/16 09:32:23;;;;;;;10.20;4.75;;;22.40;57.10;;;;;;4992975;28;20030;-76
2022/06/16 09:34:56;;;;;;;10.85;5.38;;;22.40;57.20;;;;;;4993545;28;20034;-76
2022/06/16 09:37:44;;;;;;;10.25;5.20;;;22.40;57.20;;;;;;4992402;28;20606;-76
2022/06/16 09:40:26;;;;;;;8.35;4.50;;;22.40;57.30;;;;;;4992111;28;20031;-76
2022/06/16 09:42:59;;;;;;;11.15;5.10;;;22.40;57.20;;;;;;4992858;28;20030;-75
2022/06/16 09:45:27;;;;;;;8.88;4.07;;;22.40;57.20;;;;;;4993413;28;20050;-77
2022/06/16 09:48:07;;;;;;;11.07;4.80;;;22.40;57.20;;;;;;4990906;28;20498;-77
2022/06/16 09:50:48;;;;;;;11.52;4.80;;;22.40;57.20;;;;;;4992275;28;20538;-75
2022/06/16 09:53:24;;;;;;;9.52;4.35;;;22.40;57.10;;;;;;4991813;28;20455;-76
2022/06/16 09:55:55;;;;;;;8.85;4.85;;;22.40;57.20;;;;;;4988606;28;20037;-76
2022/06/16 09:58:31;;;;;;;12.63;4.70;;;22.40;57.20;;;;;;4983520;28;20489;-76
2022/06/16 10:01:03;;;;;;;11.05;5.20;;;22.40;57.10;;;;;;4991548;28;20480;-76
2022/06/16 10:03:40;;;;;;;10.68;4.60;;;22.40;57.20;;;;;;5007934;28;20030;-76
2022/06/16 10:06:18;;;;;;;20.60;4.65;;;22.40;57.10;;;;;;4992479;28;20018;-76
2022/06/16 10:08:51;;;;;;;13.00;4.65;;;22.50;57.50;;;;;;4990828;28;20038;-78
2022/06/16 10:11:40;;;;;;;10.10;4.90;;;22.50;57.30;;;;;;4991898;28;20435;-78
2022/06/16 10:14:27;;;;;;;13.32;5.22;;;22.50;57.30;;;;;;4985823;28;20034;-76
2022/06/16 10:16:59;;;;;;;11.75;4.80;;;22.50;57.60;;;;;;4987842;28;20117;-77
2022/06/16 10:19:29;;;;;;;11.48;4.72;;;22.50;58.00;;;;;;5004639;28;20042;-77
2022/06/16 10:21:56;;;;;;;;;;;22.50;57.50;;;;;;5005173;28;20549;-76
2022/06/16 10:24:27;;;;;;;16.42;4.40;;;22.50;57.70;;;;;;4988028;28;20339;-75
2022/06/16 10:26:57;;;;;;;10.45;4.50;;;22.50;57.70;;;;;;4987256;28;20034;-76
2022/06/16 10:29:27;;;;;;;;;;;22.50;57.90;;;;;;4989424;28;20033;-76
2022/06/16 10:31:55;;;;;;;14.57;4.72;;;22.50;57.90;;;;;;4987900;28;20299;-76
2022/06/16 10:34:39;;;;;;;12.70;4.63;;;22.50;58.00;;;;;;4999540;28;20132;-76
2022/06/16 10:37:17;;;;;;;13.55;4.30;;;22.50;58.00;;;;;;4988784;28;20419;-76
2022/06/16 10:39:58;;;;;;;9.93;4.57;;;22.50;58.10;;;;;;5002929;28;20143;-75
2022/06/16 10:42:40;;;;;;;11.07;4.05;;;22.50;58.00;;;;;;4974520;28;20156;-76
2022/06/16 10:45:06;;;;;;;9.25;4.30;;;22.50;58.10;;;;;;4971982;28;20018;-76
2022/06/16 10:47:33;;;;;;;9.52;4.50;;;22.50;58.20;;;;;;4971674;28;20403;-76
2022/06/16 10:50:01;;;;;;;11.52;4.18;;;22.50;58.10;;;;;;4971558;28;20502;-76
2022/06/16 10:52:32;;;;;;;10.00;4.07;;;22.50;58.10;;;;;;4972089;28;20428;-76
2022/06/16 10:55:10;;;;;;;11.93;4.55;;;22.50;58.40;;;;;;4972575;28;20034;-75
2022/06/16 10:58:06;;;;;;;10.32;4.80;;;22.50;58.10;;;;;;5002120;28;20065;-76
2022/06/16 11:00:36;;;;;;;10.70;3.85;;;22.50;57.90;;;;;;4982115;28;20046;-75
2022/06/16 11:03:15;;;;;;;11.93;4.50;;;22.50;57.90;;;;;;5001992;28;20031;-75
2022/06/16 11:05:55;;;;;;;10.43;4.10;;;22.50;57.80;;;;;;4985834;28;20069;-75
2022/06/16 11:08:23;;;;;;;10.10;3.78;;;22.50;57.80;;;;;;4991111;28;20109;-75
2022/06/16 11:10:57;;;;;;;11.00;4.43;;;22.50;57.70;;;;;;4998327;28;20126;-75
2022/06/16 11:13:29;;;;;;;11.95;4.38;;;22.50;57.70;;;;;;4990409;28;20030;-75
2022/06/16 11:15:55;;;;;;;9.98;4.30;;;22.50;57.60;;;;;;4991698;28;20061;-75
2022/06/16 11:18:25;;;;;;;15.90;4.53;;;22.50;57.60;;;;;;4973738;28;20026;-76
2022/06/16 11:20:55;;;;;;;7.05;4.05;;;22.50;57.60;;;;;;5006756;28;20434;-76
2022/06/16 11:23:21;;;;;;;9.15;4.40;;;22.50;57.60;;;;;;4990413;28;20176;-75
2022/06/16 11:25:53;;;;;;;8.10;3.70;;;22.50;57.50;;;;;;4989048;28;20105;-75
2022/06/16 11:28:23;;;;;;;11.65;4.15;;;22.50;57.50;;;;;;4983017;28;20101;-75
2022/06/16 11:30:49;;;;;;;9.75;4.03;;;22.50;58.10;;;;;;4991619;28;20077;-75
2022/06/16 11:36:35;;;;;;;10.32;3.83;;;22.50;57.50;;;;;;4990709;28;20100;-75
2022/06/16 11:39:24;;;;;;;7.05;3.72;;;22.50;57.50;;;;;;5008607;28;20030;-75
2022/06/16 11:41:52;;;;;;;9.40;4.05;;;22.50;57.50;;;;;;4985635;28;20073;-75
2022/06/16 11:44:34;;;;;;;10.93;3.63;;;22.50;57.60;;;;;;4969701;28;20483;-75
2022/06/16 11:47:06;;;;;;;8.63;3.60;;;22.50;57.60;;;;;;4995510;28;20034;-75
2022/06/16 11:49:39;;;;;;;16.67;4.80;;;22.50;57.80;;;;;;5009655;28;20023;-75
2022/06/16 11:52:18;;;;;;;13.57;4.03;;;22.50;57.70;;;;;;4992482;28;20019;-76
2022/06/16 11:55:10;;;;;;;9.15;4.70;;;22.60;58.90;;;;;;4995057;28;20022;-74
2022/06/16 11:57:57;;;;;;;25.25;6.97;;;22.60;59.50;;;;;;4985393;28;20038;-81
2022/06/16 12:00:30;;;;;;;40.50;12.32;;;22.60;59.70;;;;;;4990211;28;20398;-79
2022/06/16 12:03:05;;;;;;;30.83;8.15;;;22.70;60.80;;;;;;4974733;28;20038;-80
2022/06/16 12:05:50;;;;;;;18.13;6.05;;;22.70;59.40;;;;;;4978380;28;20134;-80
2022/06/16 12:08:53;;;;;;;13.75;4.00;;;22.80;55.90;;;;;;4992859;28;20423;-80
2022/06/16 12:11:46;;;;;;;20.63;6.25;;;22.80;55.30;;;;;;4990086;28;20026;-80
2022/06/16 12:14:25;;;;;;;13.88;4.90;;;22.80;55.00;;;;;;4993556;28;20046;-80
2022/06/16 12:17:09;;;;;;;17.70;4.50;;;22.80;54.80;;;;;;4995176;28;20437;-80
2022/06/16 12:19:44;;;;;;;15.05;3.85;;;22.80;55.00;;;;;;5009879;28;20034;-80
2022/06/16 12:22:35;;;;;;;17.58;5.22;;;22.80;52.70;;;;;;4994622;28;20065;-81
2022/06/16 12:25:09;;;;;;;11.20;4.30;;;22.80;52.90;;;;;;4977399;28;20062;-81
2022/06/16 12:27:46;;;;;;;17.50;6.60;;;22.80;53.20;;;;;;4992138;28;20554;-81
2022/06/16 12:30:27;;;;;;;13.68;6.22;;;22.80;53.40;;;;;;4969156;28;20494;-80
2022/06/16 12:33:00;;;;;;;14.48;5.30;;;22.80;52.10;;;;;;4977139;28;20533;-81
2022/06/16 12:35:44;;;;;;;16.80;4.82;;;22.80;52.10;;;;;;4977808;28;20038;-82
2022/06/16 12:38:29;;;;;;;15.57;4.70;;;22.80;51.90;;;;;;4994036;28;20125;-81
2022/06/16 12:41:03;;;;;;;13.82;4.35;;;22.80;51.50;;;;;;4992912;28;20030;-82
2022/06/16 12:43:35;;;;;;;14.13;3.92;;;22.80;52.00;;;;;;4994400;28;20539;-81
2022/06/16 12:46:07;;;;;;;12.15;3.40;;;22.80;51.90;;;;;;4994708;28;20038;-81
2022/06/16 12:48:46;;;;;;;9.90;3.35;;;22.80;51.60;;;;;;4992362;28;20438;-81
2022/06/16 12:51:15;;;;;;;;;;;22.80;52.40;;;;;;4994540;28;20471;-81
2022/06/16 12:54:00;;;;;;;10.35;3.20;;;22.70;51.30;;;;;;4992065;28;20279;-79
2022/06/16 12:56:51;;;;;;;8.32;3.38;;;22.80;51.00;;;;;;4986853;28;20036;-81
2022/06/16 12:59:36;;;;;;;7.25;3.08;;;22.80;51.70;;;;;;4971529;28;20047;-81
2022/06/16 13:02:06;;;;;;;7.22;2.90;;;22.70;50.90;;;;;;4986494;23;20058;-72
2022/06/16 13:04:34;;;;;;;13.32;3.33;;;22.70;50.60;;;;;;4988554;28;20038;-73
2022/06/16 13:07:03;;;;;;;10.88;3.00;;;22.70;50.90;;;;;;4972688;28;20041;-73
2022/06/16 13:09:29;;;;;;;6.55;2.25;;;22.70;50.70;;;;;;4973737;28;20050;-74
2022/06/16 13:12:01;;;;;;;9.15;2.20;;;22.70;50.30;;;;;;4973097;28;20535;-74
2022/06/16 13:14:41;;;;;;;6.07;2.22;;;22.70;50.20;;;;;;4974369;28;20035;-74
2022/06/16 13:17:09;;;;;;;5.80;2.28;;;22.80;50.00;;;;;;4973217;28;20039;-73
2022/06/16 13:19:50;;;;;;;5.47;2.05;;;22.80;50.00;;;;;;4972487;28;20547;-73
2022/06/16 13:22:36;;;;;;;6.63;2.50;;;22.80;50.20;;;;;;4989002;28;20031;-73
2022/06/16 13:25:09;;;;;;;9.30;2.33;;;22.80;50.30;;;;;;4968043;28;20499;-73
2022/06/16 13:27:56;;;;;;;8.10;2.80;;;22.80;50.30;;;;;;4972206;28;20026;-73
2022/06/16 13:30:37;;;;;;;7.53;2.47;;;22.80;50.30;;;;;;4972895;28;20042;-73
2022/06/16 13:33:06;;;;;;;7.78;2.40;;;22.80;50.30;;;;;;4973120;28;20491;-73
2022/06/16 13:35:40;;;;;;;7.75;2.58;;;22.80;50.20;;;;;;4974073;28;20037;-73
2022/06/16 13:38:06;;;;;;;8.48;2.83;;;22.80;50.30;;;;;;4971952;28;20062;-73
2022/06/16 13:40:35;;;;;;;6.35;2.45;;;22.80;50.60;;;;;;4972574;28;20121;-73
2022/06/16 13:43:19;;;;;;;8.45;2.60;;;22.80;50.30;;;;;;4963784;28;20412;-73